createdAt,value
2022-07-31T00:01:14.135Z,21.24
2022-07-31T00:02:47.077Z,21.21
2022-07-31T00:04:19.229Z,21.17
2022-07-31T00:05:51.281Z,21.18
2022-07-31T00:07:23.445Z,21.19
2022-07-31T00:08:55.477Z,21.16
2022-07-31T00:10:27.567Z,21.15
2022-07-31T00:11:59.649Z,21.16
2022-07-31T00:13:56.798Z,21.16
2022-07-31T00:15:23.842Z,21.17
2022-07-31T00:16:56.081Z,21.16
2022-07-31T00:18:28.129Z,21.16
2022-07-31T00:20:00.297Z,21.12
2022-07-31T00:21:32.391Z,21.13
2022-07-31T00:23:04.415Z,21.15
2022-07-31T00:24:36.399Z,21.17
2022-07-31T00:26:08.454Z,21.18
2022-07-31T00:27:41.487Z,21.20
2022-07-31T00:29:16.100Z,21.20
2022-07-31T00:30:48.468Z,21.17
2022-07-31T00:32:21.715Z,21.17
2022-07-31T00:33:53.644Z,21.22
2022-07-31T00:35:25.707Z,21.21
2022-07-31T00:36:58.013Z,21.21
2022-07-31T00:38:30.303Z,21.18
2022-07-31T00:40:02.541Z,21.17
2022-07-31T00:41:44.061Z,21.21
2022-07-31T00:43:16.611Z,21.21
2022-07-31T00:44:48.720Z,21.21
2022-07-31T00:46:20.721Z,21.19
2022-07-31T00:47:55.903Z,21.15
2022-07-31T00:49:37.282Z,21.12
2022-07-31T00:51:10.542Z,21.07
2022-07-31T00:54:22.576Z,20.94
2022-07-31T00:55:55.232Z,21.08
2022-07-31T00:57:27.293Z,21.07
2022-07-31T00:59:01.819Z,21.08
2022-07-31T01:00:34.014Z,21.00
2022-07-31T01:02:06.314Z,21.03
2022-07-31T01:03:38.398Z,21.03
2022-07-31T01:05:10.480Z,21.03
2022-07-31T01:06:42.887Z,21.01
2022-07-31T01:08:15.636Z,21.00
2022-07-31T01:09:49.465Z,20.99
2022-07-31T01:11:31.213Z,20.97
2022-07-31T01:13:05.962Z,20.99
2022-07-31T01:14:41.278Z,20.97
2022-07-31T01:16:13.840Z,20.96
2022-07-31T01:17:48.137Z,20.94
2022-07-31T01:19:46.663Z,20.93
2022-07-31T01:21:22.188Z,20.91
2022-07-31T01:23:17.534Z,20.88
2022-07-31T01:25:12.723Z,20.85
2022-07-31T01:27:00.238Z,20.85
2022-07-31T01:28:53.172Z,20.87
2022-07-31T01:30:31.044Z,20.87
2022-07-31T01:32:09.453Z,20.76
2022-07-31T01:33:47.909Z,20.77
2022-07-31T01:35:33.657Z,20.76
2022-07-31T01:37:30.881Z,20.75
2022-07-31T01:39:04.033Z,20.70
2022-07-31T01:40:40.590Z,20.68
2022-07-31T01:42:14.945Z,20.68
2022-07-31T01:43:48.743Z,20.66
2022-07-31T01:45:21.711Z,20.63
2022-07-31T01:46:58.976Z,20.59
2022-07-31T01:48:35.455Z,20.59
2022-07-31T01:50:09.151Z,20.56
2022-07-31T01:52:02.850Z,20.54
2022-07-31T01:53:41.498Z,20.52
2022-07-31T01:55:15.448Z,20.49
2022-07-31T01:56:49.309Z,20.50
2022-07-31T01:58:23.144Z,20.49
2022-07-31T01:59:57.290Z,20.51
2022-07-31T02:01:29.779Z,20.50
2022-07-31T02:03:09.830Z,20.47
2022-07-31T02:04:42.716Z,20.46
2022-07-31T02:06:16.640Z,20.45
2022-07-31T02:07:49.513Z,20.41
2022-07-31T02:09:22.285Z,20.39
2022-07-31T02:10:55.163Z,20.36
2022-07-31T02:12:32.017Z,20.33
2022-07-31T02:14:06.208Z,20.33
2022-07-31T02:15:38.858Z,20.30
2022-07-31T02:17:12.385Z,20.28
2022-07-31T02:18:44.418Z,20.25
2022-07-31T02:20:16.605Z,20.24
2022-07-31T02:21:48.627Z,20.21
2022-07-31T02:23:20.856Z,20.19
2022-07-31T02:24:52.937Z,20.17
2022-07-31T02:26:26.401Z,20.15
2022-07-31T02:27:59.374Z,20.12
2022-07-31T02:29:32.899Z,20.11
2022-07-31T02:31:07.031Z,20.09
2022-07-31T02:32:39.861Z,20.10
2022-07-31T02:34:14.246Z,20.09
2022-07-31T02:35:49.298Z,20.13
2022-07-31T02:37:22.737Z,20.16
2022-07-31T02:38:56.447Z,20.19
2022-07-31T02:40:28.927Z,20.21
2022-07-31T02:42:02.116Z,20.25
2022-07-31T02:43:35.754Z,20.28
2022-07-31T02:45:11.221Z,20.31
2022-07-31T02:46:45.090Z,20.32
2022-07-31T02:48:17.344Z,20.30
2022-07-31T02:49:50.052Z,20.24
2022-07-31T02:51:23.083Z,20.20
2022-07-31T02:52:56.093Z,20.15
2022-07-31T02:54:28.341Z,20.09
2022-07-31T02:56:02.042Z,20.07
2022-07-31T02:57:34.115Z,20.05
2022-07-31T02:59:07.406Z,20.04
2022-07-31T03:00:39.399Z,20.04
2022-07-31T03:02:11.658Z,19.99
2022-07-31T03:03:43.766Z,19.94
2022-07-31T03:05:16.605Z,19.89
2022-07-31T03:06:51.361Z,19.89
2022-07-31T03:08:23.482Z,19.87
2022-07-31T03:09:57.995Z,19.89
2022-07-31T03:11:30.100Z,19.90
2022-07-31T03:13:03.903Z,19.88
2022-07-31T03:14:36.289Z,19.85
2022-07-31T03:16:11.755Z,19.87
2022-07-31T03:17:45.120Z,19.86
2022-07-31T03:19:20.191Z,19.85
2022-07-31T03:20:55.574Z,19.90
2022-07-31T03:22:27.667Z,19.93
2022-07-31T03:23:59.990Z,19.97
2022-07-31T03:25:33.775Z,20.00
2022-07-31T03:27:05.836Z,20.05
2022-07-31T03:28:38.051Z,20.06
2022-07-31T03:30:17.214Z,20.08
2022-07-31T03:31:49.336Z,20.09
2022-07-31T03:33:22.505Z,20.09
2022-07-31T03:34:54.542Z,20.07
2022-07-31T03:36:27.572Z,20.08
2022-07-31T03:37:59.637Z,20.06
2022-07-31T03:39:31.870Z,20.05
2022-07-31T03:41:03.950Z,20.06
2022-07-31T03:42:36.005Z,20.04
2022-07-31T03:44:08.839Z,20.02
2022-07-31T03:45:41.129Z,19.99
2022-07-31T03:47:13.241Z,19.99
2022-07-31T03:48:52.573Z,19.98
2022-07-31T03:50:25.534Z,20.00
2022-07-31T03:51:57.681Z,20.01
2022-07-31T03:53:29.813Z,20.05
2022-07-31T03:55:02.216Z,20.09
2022-07-31T03:56:35.095Z,20.12
2022-07-31T03:58:07.717Z,20.16
2022-07-31T03:59:48.233Z,20.18
2022-07-31T04:01:21.882Z,20.21
2022-07-31T04:02:58.541Z,20.24
2022-07-31T04:04:30.765Z,20.24
2022-07-31T04:06:02.899Z,20.23
2022-07-31T04:07:34.964Z,20.20
2022-07-31T04:09:15.592Z,20.18
2022-07-31T04:10:51.841Z,20.16
2022-07-31T04:12:23.915Z,20.13
2022-07-31T04:13:56.363Z,20.11
2022-07-31T04:15:28.561Z,20.11
2022-07-31T04:17:00.590Z,20.12
2022-07-31T04:18:32.727Z,20.13
2022-07-31T04:20:05.867Z,20.15
2022-07-31T04:21:38.078Z,20.20
2022-07-31T04:23:10.132Z,20.21
2022-07-31T04:24:44.719Z,20.23
2022-07-31T04:26:20.057Z,20.27
2022-07-31T04:27:58.580Z,20.33
2022-07-31T04:29:30.876Z,20.35
2022-07-31T04:31:02.957Z,20.38
2022-07-31T04:32:36.351Z,20.43
2022-07-31T04:34:08.745Z,20.45
2022-07-31T04:35:42.454Z,20.49
2022-07-31T04:37:14.509Z,20.54
2022-07-31T04:38:46.932Z,20.62
2022-07-31T04:40:19.221Z,20.69
2022-07-31T04:41:51.984Z,20.76
2022-07-31T04:43:24.430Z,20.82
2022-07-31T04:44:56.497Z,20.88
2022-07-31T04:46:28.808Z,20.93
2022-07-31T04:48:00.946Z,21.01
2022-07-31T04:49:33.452Z,21.08
2022-07-31T04:51:05.518Z,21.12
2022-07-31T04:52:37.595Z,21.15
2022-07-31T04:54:10.614Z,21.19
2022-07-31T04:55:42.736Z,21.20
2022-07-31T04:57:17.404Z,21.27
2022-07-31T04:58:52.204Z,21.32
2022-07-31T05:00:25.205Z,21.30
2022-07-31T05:01:57.330Z,21.33
2022-07-31T05:03:29.591Z,21.36
2022-07-31T05:05:01.910Z,21.39
2022-07-31T05:06:37.962Z,21.46
2022-07-31T05:08:10.311Z,21.54
2022-07-31T05:09:42.358Z,21.61
2022-07-31T05:11:23.806Z,21.67
2022-07-31T05:12:55.959Z,21.67
2022-07-31T05:14:28.370Z,21.71
2022-07-31T05:16:00.544Z,21.78
2022-07-31T05:17:32.561Z,21.82
2022-07-31T05:19:05.796Z,21.86
2022-07-31T05:20:46.129Z,21.92
2022-07-31T05:22:18.883Z,22.03
2022-07-31T05:23:51.598Z,22.10
2022-07-31T05:25:23.648Z,22.18
2022-07-31T05:26:55.929Z,22.25
2022-07-31T05:28:29.936Z,22.33
2022-07-31T05:30:02.794Z,22.42
2022-07-31T05:31:34.986Z,22.43
2022-07-31T05:33:07.238Z,22.50
2022-07-31T05:34:39.837Z,22.56
2022-07-31T05:36:12.645Z,22.57
2022-07-31T05:39:18.459Z,22.63
2022-07-31T05:40:50.712Z,22.67
2022-07-31T05:42:22.905Z,22.69
2022-07-31T05:43:55.075Z,22.69
2022-07-31T05:45:27.192Z,22.70
2022-07-31T05:48:30.767Z,22.74
2022-07-31T05:50:04.921Z,22.80
2022-07-31T05:51:37.784Z,22.84
2022-07-31T05:53:15.591Z,22.93
2022-07-31T05:54:48.151Z,22.99
2022-07-31T05:56:20.214Z,23.07
2022-07-31T05:57:52.705Z,23.14
2022-07-31T05:59:25.101Z,23.22
2022-07-31T06:00:57.295Z,23.24
2022-07-31T06:02:29.336Z,23.31
2022-07-31T06:04:02.917Z,23.36
2022-07-31T06:05:35.292Z,23.42
2022-07-31T06:07:07.511Z,23.41
2022-07-31T06:08:39.996Z,23.44
2022-07-31T06:10:12.467Z,23.40
2022-07-31T06:11:44.796Z,23.48
2022-07-31T06:13:17.198Z,23.48
2022-07-31T06:14:49.952Z,23.53
2022-07-31T06:16:21.994Z,23.58
2022-07-31T06:17:54.110Z,23.66
2022-07-31T06:19:26.287Z,23.71
2022-07-31T06:20:58.405Z,23.78
2022-07-31T06:22:30.746Z,23.80
2022-07-31T06:24:02.836Z,23.81
2022-07-31T06:25:38.845Z,23.80
2022-07-31T06:27:20.805Z,23.73
2022-07-31T06:29:04.889Z,23.78
2022-07-31T06:30:37.550Z,23.84
2022-07-31T06:32:09.850Z,23.90
2022-07-31T06:33:42.136Z,23.77
2022-07-31T06:35:20.481Z,23.78
2022-07-31T06:36:52.922Z,23.77
2022-07-31T06:38:25.176Z,23.79
2022-07-31T06:39:57.453Z,23.79
2022-07-31T06:43:27.423Z,23.81
2022-07-31T06:45:00.081Z,23.84
2022-07-31T06:46:32.634Z,23.92
2022-07-31T06:48:05.001Z,23.98
2022-07-31T06:49:37.386Z,24.02
2022-07-31T06:51:30.235Z,24.07
2022-07-31T06:53:03.847Z,24.03
2022-07-31T06:54:36.259Z,24.11
2022-07-31T06:56:08.716Z,24.14
2022-07-31T06:57:41.299Z,24.16
2022-07-31T06:59:13.604Z,24.23
2022-07-31T07:01:05.955Z,24.30
2022-07-31T07:02:38.286Z,24.35
2022-07-31T07:04:10.865Z,24.39
2022-07-31T07:05:45.469Z,24.36
2022-07-31T07:07:18.010Z,24.37
2022-07-31T07:08:50.801Z,24.41
2022-07-31T07:10:23.283Z,24.36
2022-07-31T07:11:55.872Z,24.39
2022-07-31T07:13:45.072Z,24.45
2022-07-31T07:15:18.818Z,24.50
2022-07-31T07:16:51.217Z,24.50
2022-07-31T07:18:23.475Z,24.50
2022-07-31T07:19:56.156Z,24.49
2022-07-31T07:21:28.465Z,24.42
2022-07-31T07:23:00.782Z,24.38
2022-07-31T07:24:33.375Z,24.35
2022-07-31T07:26:06.708Z,24.35
2022-07-31T07:27:39.166Z,24.33
2022-07-31T07:29:11.690Z,24.23
2022-07-31T07:30:44.497Z,24.20
2022-07-31T07:32:17.300Z,24.25
2022-07-31T07:33:51.912Z,24.27
2022-07-31T07:35:24.170Z,24.38
2022-07-31T07:36:56.460Z,24.45
2022-07-31T07:38:28.753Z,24.50
2022-07-31T07:40:02.461Z,24.51
2022-07-31T07:41:36.173Z,24.54
2022-07-31T07:44:40.942Z,24.62
2022-07-31T07:46:13.298Z,24.62
2022-07-31T07:48:05.418Z,24.63
2022-07-31T07:49:38.321Z,24.66
2022-07-31T07:51:10.657Z,24.62
2022-07-31T07:52:44.040Z,24.61
2022-07-31T07:54:16.981Z,24.62
2022-07-31T07:55:49.447Z,24.52
2022-07-31T07:57:22.344Z,24.47
2022-07-31T07:58:54.625Z,24.47
2022-07-31T08:00:27.001Z,24.38
2022-07-31T08:01:59.313Z,24.34
2022-07-31T08:03:49.288Z,24.35
2022-07-31T08:05:23.898Z,24.30
2022-07-31T08:06:56.383Z,24.31
2022-07-31T08:08:28.755Z,24.27
2022-07-31T08:10:01.266Z,24.26
2022-07-31T08:11:33.512Z,24.24
2022-07-31T08:13:06.195Z,24.20
2022-07-31T08:14:38.674Z,24.21
2022-07-31T08:16:11.068Z,24.22
2022-07-31T08:17:43.439Z,24.20
2022-07-31T08:19:15.885Z,24.26
2022-07-31T08:20:50.865Z,24.28
2022-07-31T08:22:23.436Z,24.27
2022-07-31T08:23:55.875Z,24.29
2022-07-31T08:25:31.962Z,24.29
2022-07-31T08:27:23.438Z,24.28
2022-07-31T08:29:12.052Z,24.32
2022-07-31T08:30:44.581Z,24.36
2022-07-31T08:32:17.918Z,24.37
2022-07-31T08:33:50.272Z,24.39
2022-07-31T08:35:22.597Z,24.39
2022-07-31T08:36:54.970Z,24.40
2022-07-31T08:38:27.295Z,24.41
2022-07-31T08:40:00.248Z,24.43
2022-07-31T08:41:39.117Z,24.45
2022-07-31T08:44:02.129Z,24.49
2022-07-31T08:45:09.389Z,24.51
2022-07-31T08:46:42.276Z,24.50
2022-07-31T08:48:15.310Z,24.55
2022-07-31T08:49:49.752Z,24.56
2022-07-31T08:51:24.438Z,24.56
2022-07-31T08:52:57.774Z,24.51
2022-07-31T08:54:32.369Z,24.54
2022-07-31T08:56:06.500Z,24.60
2022-07-31T08:57:39.598Z,24.65
2022-07-31T08:59:12.094Z,24.69
2022-07-31T09:00:44.641Z,24.70
2022-07-31T09:02:17.406Z,24.76
2022-07-31T09:03:49.764Z,24.82
2022-07-31T09:05:22.442Z,24.82
2022-07-31T09:06:55.240Z,24.82
2022-07-31T09:08:27.641Z,24.88
2022-07-31T09:10:00.172Z,24.87
2022-07-31T09:11:32.655Z,24.84
2022-07-31T09:13:14.732Z,24.86
2022-07-31T09:14:49.891Z,24.91
2022-07-31T09:16:24.316Z,24.94
2022-07-31T09:18:03.329Z,24.98
2022-07-31T09:19:52.200Z,25.03
2022-07-31T09:21:27.028Z,25.03
2022-07-31T09:23:07.941Z,25.07
2022-07-31T09:24:43.214Z,25.09
2022-07-31T09:26:15.803Z,25.11
2022-07-31T09:27:49.235Z,25.13
2022-07-31T09:29:36.271Z,25.09
2022-07-31T09:31:10.315Z,25.11
2022-07-31T09:32:43.687Z,25.17
2022-07-31T09:34:26.696Z,25.26
2022-07-31T09:36:01.694Z,25.26
2022-07-31T09:37:33.934Z,25.23
2022-07-31T09:39:15.116Z,25.29
2022-07-31T09:41:56.314Z,25.30
2022-07-31T09:43:15.721Z,25.27
2022-07-31T09:44:49.024Z,25.23
2022-07-31T09:46:21.408Z,25.27
2022-07-31T09:48:06.885Z,25.37
2022-07-31T09:49:39.420Z,25.46
2022-07-31T09:51:12.250Z,25.51
2022-07-31T09:52:44.909Z,25.55
2022-07-31T09:54:25.987Z,25.59
2022-07-31T09:55:58.792Z,25.67
2022-07-31T09:57:31.299Z,25.72
2022-07-31T09:59:03.971Z,25.80
2022-07-31T10:00:37.840Z,25.84
2022-07-31T10:02:14.279Z,25.94
2022-07-31T10:03:50.686Z,26.01
2022-07-31T10:05:26.970Z,26.18
2022-07-31T10:06:59.646Z,26.22
2022-07-31T10:08:36.046Z,26.31
2022-07-31T10:10:09.479Z,26.33
2022-07-31T10:11:42.924Z,26.37
2022-07-31T10:13:16.863Z,26.31
2022-07-31T10:14:51.760Z,26.34
2022-07-31T10:16:26.105Z,26.41
2022-07-31T10:17:58.801Z,26.43
2022-07-31T10:19:37.042Z,26.43
2022-07-31T10:21:12.100Z,26.45
2022-07-31T10:22:54.785Z,26.52
2022-07-31T10:24:30.338Z,26.58
2022-07-31T10:26:03.508Z,26.60
2022-07-31T10:27:39.410Z,26.54
2022-07-31T10:29:12.246Z,26.54
2022-07-31T10:30:46.789Z,26.56
2022-07-31T10:32:19.169Z,26.55
2022-07-31T10:33:52.902Z,26.45
2022-07-31T10:35:25.813Z,26.48
2022-07-31T10:37:03.081Z,26.53
2022-07-31T10:38:51.895Z,26.60
2022-07-31T10:40:30.236Z,26.65
2022-07-31T10:42:34.651Z,26.71
2022-07-31T10:44:27.190Z,26.76
2022-07-31T10:45:59.638Z,26.82
2022-07-31T10:47:32.261Z,26.87
2022-07-31T10:49:08.933Z,26.89
2022-07-31T10:50:41.529Z,26.91
2022-07-31T10:52:13.831Z,26.92
2022-07-31T10:54:01.477Z,26.94
2022-07-31T10:55:35.783Z,26.90
2022-07-31T10:57:08.137Z,26.85
2022-07-31T10:58:55.817Z,26.94
2022-07-31T11:00:29.673Z,26.88
2022-07-31T11:02:02.452Z,26.92
2022-07-31T11:03:48.934Z,26.94
2022-07-31T11:05:28.255Z,26.82
2022-07-31T11:07:00.679Z,26.86
2022-07-31T11:08:46.014Z,26.92
2022-07-31T11:10:22.497Z,26.91
2022-07-31T11:11:55.753Z,26.88
2022-07-31T11:13:36.666Z,26.85
2022-07-31T11:15:23.853Z,26.90
2022-07-31T11:16:59.313Z,26.88
2022-07-31T11:18:34.442Z,26.90
2022-07-31T11:20:08.038Z,26.94
2022-07-31T11:21:42.713Z,26.97
2022-07-31T11:23:18.002Z,26.98
2022-07-31T11:24:56.496Z,27.03
2022-07-31T11:26:32.805Z,27.09
2022-07-31T11:28:13.056Z,27.23
2022-07-31T11:30:01.280Z,27.32
2022-07-31T11:31:35.715Z,27.39
2022-07-31T11:33:08.001Z,27.44
2022-07-31T11:34:54.448Z,27.51
2022-07-31T11:36:27.493Z,27.52
2022-07-31T11:37:59.987Z,27.61
2022-07-31T11:39:36.962Z,27.58
2022-07-31T11:41:10.214Z,27.58
2022-07-31T11:42:52.530Z,27.54
2022-07-31T11:44:32.412Z,27.55
2022-07-31T11:46:05.884Z,27.52
2022-07-31T11:48:11.700Z,27.61
2022-07-31T11:49:47.807Z,27.65
2022-07-31T11:51:22.528Z,27.75
2022-07-31T11:53:02.370Z,27.82
2022-07-31T11:54:35.396Z,27.84
2022-07-31T11:56:07.416Z,27.82
2022-07-31T11:57:52.562Z,27.80
2022-07-31T11:59:45.368Z,27.81
2022-07-31T12:01:19.624Z,27.80
2022-07-31T12:02:51.930Z,27.84
2022-07-31T12:04:24.765Z,27.78
2022-07-31T12:05:57.601Z,27.84
2022-07-31T12:07:29.999Z,27.88
2022-07-31T12:09:02.429Z,27.92
2022-07-31T12:10:34.662Z,27.91
2022-07-31T12:12:08.129Z,27.94
2022-07-31T12:13:40.603Z,27.96
2022-07-31T12:15:16.537Z,28.01
2022-07-31T12:16:48.841Z,28.00
2022-07-31T12:18:21.282Z,27.99
2022-07-31T12:19:57.727Z,27.97
2022-07-31T12:21:35.985Z,27.95
2022-07-31T12:23:08.386Z,27.91
2022-07-31T12:25:07.315Z,27.84
2022-07-31T12:26:44.912Z,27.85
2022-07-31T12:28:17.930Z,27.85
2022-07-31T12:29:50.082Z,27.88
2022-07-31T12:31:22.355Z,27.87
2022-07-31T12:33:05.702Z,27.89
2022-07-31T12:34:39.927Z,27.91
2022-07-31T12:36:16.199Z,27.94
2022-07-31T12:37:50.008Z,27.94
2022-07-31T12:39:22.470Z,28.00
2022-07-31T12:41:05.344Z,28.11
2022-07-31T12:42:41.901Z,28.21
2022-07-31T12:44:14.989Z,28.31
2022-07-31T12:45:54.731Z,28.30
2022-07-31T12:47:28.003Z,28.36
2022-07-31T12:49:00.227Z,28.28
2022-07-31T12:50:34.199Z,28.11
2022-07-31T12:52:06.434Z,28.02
2022-07-31T12:53:38.867Z,28.13
2022-07-31T12:55:11.327Z,28.32
2022-07-31T12:56:44.191Z,28.51
2022-07-31T12:58:16.697Z,28.63
2022-07-31T12:59:49.065Z,28.72
2022-07-31T13:01:21.489Z,28.79
2022-07-31T13:02:55.228Z,28.93
2022-07-31T13:04:27.679Z,29.02
2022-07-31T13:05:59.876Z,28.97
2022-07-31T13:07:32.418Z,28.98
2022-07-31T13:09:05.210Z,28.88
2022-07-31T13:10:37.739Z,28.84
2022-07-31T13:12:13.940Z,28.80
2022-07-31T13:13:46.487Z,28.72
2022-07-31T13:15:21.031Z,28.70
2022-07-31T13:16:55.792Z,28.61
2022-07-31T13:18:30.368Z,28.54
2022-07-31T13:20:02.725Z,28.56
2022-07-31T13:21:48.411Z,28.63
2022-07-31T13:23:22.237Z,28.71
2022-07-31T13:24:54.459Z,28.80
2022-07-31T13:26:29.498Z,28.89
2022-07-31T13:28:01.806Z,28.97
2022-07-31T13:29:34.489Z,28.99
2022-07-31T13:31:06.839Z,28.94
2022-07-31T13:32:39.056Z,29.00
2022-07-31T13:34:11.607Z,29.07
2022-07-31T13:35:43.955Z,29.15
2022-07-31T13:37:16.461Z,29.16
2022-07-31T13:38:48.766Z,29.14
2022-07-31T13:40:41.022Z,29.02
2022-07-31T13:42:13.382Z,29.12
2022-07-31T13:44:00.410Z,29.25
2022-07-31T13:45:33.065Z,29.36
2022-07-31T13:47:05.776Z,29.23
2022-07-31T13:48:38.289Z,29.23
2022-07-31T13:50:10.475Z,29.24
2022-07-31T13:51:42.787Z,29.19
2022-07-31T13:53:15.190Z,29.17
2022-07-31T13:54:47.639Z,29.30
2022-07-31T13:56:38.894Z,29.38
2022-07-31T13:58:12.890Z,29.35
2022-07-31T13:59:45.535Z,29.44
2022-07-31T14:01:17.965Z,29.47
2022-07-31T14:02:50.620Z,29.53
2022-07-31T14:04:23.948Z,29.51
2022-07-31T14:05:56.365Z,29.45
2022-07-31T14:07:45.114Z,29.40
2022-07-31T14:09:18.262Z,29.39
2022-07-31T14:10:50.879Z,29.32
2022-07-31T14:12:24.662Z,29.29
2022-07-31T14:13:56.916Z,29.31
2022-07-31T14:15:34.797Z,29.45
2022-07-31T14:17:07.185Z,29.46
2022-07-31T14:18:39.622Z,29.44
2022-07-31T14:20:12.765Z,29.42
2022-07-31T14:21:55.991Z,29.41
2022-07-31T14:23:35.198Z,29.38
2022-07-31T14:25:10.558Z,29.30
2022-07-31T14:26:43.763Z,29.32
2022-07-31T14:28:16.271Z,29.29
2022-07-31T14:29:48.986Z,29.24
2022-07-31T14:31:21.460Z,29.22
2022-07-31T14:32:55.166Z,29.13
2022-07-31T14:34:35.238Z,29.03
2022-07-31T14:36:08.382Z,28.99
2022-07-31T14:37:42.259Z,28.92
2022-07-31T14:39:14.768Z,28.91
2022-07-31T14:40:47.099Z,28.80
2022-07-31T14:42:22.388Z,28.70
2022-07-31T14:43:57.972Z,28.71
2022-07-31T14:45:32.945Z,28.79
2022-07-31T14:47:23.962Z,28.86
2022-07-31T14:48:56.502Z,28.89
2022-07-31T14:50:28.801Z,28.78
2022-07-31T14:52:01.504Z,28.82
2022-07-31T14:53:33.805Z,28.85
2022-07-31T14:55:06.819Z,28.78
2022-07-31T14:57:00.206Z,28.90
2022-07-31T14:58:34.302Z,28.89
2022-07-31T15:00:26.381Z,28.94
2022-07-31T15:02:00.420Z,28.96
2022-07-31T15:03:32.880Z,28.96
2022-07-31T15:06:38.695Z,29.01
2022-07-31T15:07:13.183Z,29.05
2022-07-31T15:08:50.242Z,28.99
2022-07-31T15:10:22.574Z,28.85
2022-07-31T15:12:01.202Z,28.87
2022-07-31T15:13:38.565Z,28.76
2022-07-31T15:15:11.735Z,28.73
2022-07-31T15:16:44.370Z,28.68
2022-07-31T15:18:24.585Z,28.64
2022-07-31T15:19:58.421Z,28.62
2022-07-31T15:21:30.701Z,28.61
2022-07-31T15:23:03.328Z,28.63
2022-07-31T15:24:35.730Z,28.65
2022-07-31T15:26:08.069Z,28.68
2022-07-31T15:27:40.357Z,28.68
2022-07-31T15:29:12.971Z,28.69
2022-07-31T15:30:45.606Z,28.69
2022-07-31T15:32:18.011Z,28.71
2022-07-31T15:33:50.815Z,28.75
2022-07-31T15:35:23.228Z,28.76
2022-07-31T15:36:55.472Z,28.74
2022-07-31T15:38:27.906Z,28.76
2022-07-31T15:40:02.981Z,28.78
2022-07-31T15:41:35.785Z,28.72
2022-07-31T15:43:08.165Z,28.68
2022-07-31T15:44:40.430Z,28.64
2022-07-31T15:46:12.991Z,28.65
2022-07-31T15:47:46.438Z,28.66
2022-07-31T15:49:18.799Z,28.66
2022-07-31T15:50:51.154Z,28.66
2022-07-31T15:52:23.204Z,28.68
2022-07-31T15:53:55.583Z,28.57
2022-07-31T15:55:32.125Z,28.58
2022-07-31T15:57:04.630Z,28.56
2022-07-31T15:58:37.328Z,28.58
2022-07-31T16:00:11.887Z,28.62
2022-07-31T16:01:44.035Z,28.59
2022-07-31T16:03:17.778Z,28.61
2022-07-31T16:04:52.898Z,28.51
2022-07-31T16:06:28.067Z,28.48
2022-07-31T16:08:31.473Z,28.41
2022-07-31T16:10:14.804Z,28.41
2022-07-31T16:12:04.602Z,28.39
2022-07-31T16:13:37.954Z,28.38
2022-07-31T16:15:12.926Z,28.33
2022-07-31T16:16:46.022Z,28.26
2022-07-31T16:18:18.902Z,28.27
2022-07-31T16:19:51.303Z,28.28
2022-07-31T16:21:23.774Z,28.33
2022-07-31T16:23:01.617Z,28.38
2022-07-31T16:24:36.930Z,28.37
2022-07-31T16:26:09.378Z,28.42
2022-07-31T16:27:41.684Z,28.49
2022-07-31T16:29:17.250Z,28.51
2022-07-31T16:30:51.060Z,28.58
2022-07-31T16:32:23.518Z,28.64
2022-07-31T16:33:55.972Z,28.72
2022-07-31T16:35:28.345Z,28.79
2022-07-31T16:37:00.452Z,28.80
2022-07-31T16:38:32.868Z,28.83
2022-07-31T16:40:06.581Z,28.91
2022-07-31T16:41:54.466Z,28.90
2022-07-31T16:43:50.348Z,28.98
2022-07-31T16:45:20.907Z,29.03
2022-07-31T16:46:55.003Z,29.06
2022-07-31T16:48:27.438Z,29.21
2022-07-31T16:49:59.878Z,29.29
2022-07-31T16:51:32.344Z,29.36
2022-07-31T16:53:04.560Z,29.32
2022-07-31T16:54:36.868Z,29.29
2022-07-31T16:56:10.379Z,29.27
2022-07-31T16:57:45.203Z,29.16
2022-07-31T16:59:17.410Z,29.05
2022-07-31T17:00:49.828Z,29.04
2022-07-31T17:02:22.099Z,29.05
2022-07-31T17:04:01.526Z,29.10
2022-07-31T17:05:35.491Z,29.11
2022-07-31T17:07:08.001Z,29.14
2022-07-31T17:08:40.456Z,29.10
2022-07-31T17:10:12.759Z,29.04
2022-07-31T17:11:52.688Z,28.94
2022-07-31T17:13:25.069Z,28.75
2022-07-31T17:14:57.650Z,28.63
2022-07-31T17:16:30.087Z,28.51
2022-07-31T17:18:02.512Z,28.40
2022-07-31T17:19:40.973Z,28.30
2022-07-31T17:21:17.926Z,28.17
2022-07-31T17:22:55.363Z,28.07
2022-07-31T17:24:27.480Z,27.98
2022-07-31T17:26:00.538Z,27.85
2022-07-31T17:27:33.673Z,27.77
2022-07-31T17:29:05.971Z,27.71
2022-07-31T17:30:39.417Z,27.58
2022-07-31T17:32:11.745Z,27.42
2022-07-31T17:33:59.262Z,27.17
2022-07-31T17:35:34.784Z,26.91
2022-07-31T17:37:07.956Z,26.72
2022-07-31T17:38:40.931Z,26.58
2022-07-31T17:40:41.819Z,26.52
2022-07-31T17:42:09.976Z,26.45
2022-07-31T17:43:49.977Z,26.40
2022-07-31T17:45:26.924Z,26.32
2022-07-31T17:47:20.623Z,26.25
2022-07-31T17:48:53.337Z,26.21
2022-07-31T17:50:25.736Z,26.13
2022-07-31T17:51:59.776Z,26.07
2022-07-31T17:53:55.135Z,25.98
2022-07-31T17:55:25.368Z,25.90
2022-07-31T17:56:57.881Z,25.83
2022-07-31T17:58:31.543Z,25.78
2022-07-31T18:00:07.177Z,25.72
2022-07-31T18:01:39.555Z,25.63
2022-07-31T18:03:11.999Z,25.55
2022-07-31T18:04:44.321Z,25.48
2022-07-31T18:06:16.575Z,25.33
2022-07-31T18:07:51.964Z,25.16
2022-07-31T18:09:25.179Z,24.91
2022-07-31T18:10:57.186Z,24.73
2022-07-31T18:12:29.414Z,24.51
2022-07-31T18:14:24.603Z,24.30
2022-07-31T18:15:57.178Z,24.12
2022-07-31T18:17:31.710Z,23.97
2022-07-31T18:19:04.776Z,23.83
2022-07-31T18:20:37.245Z,23.70
2022-07-31T18:22:09.915Z,23.58
2022-07-31T18:23:47.256Z,23.44
2022-07-31T18:25:20.093Z,23.31
2022-07-31T18:26:54.262Z,23.17
2022-07-31T18:28:26.900Z,23.05
2022-07-31T18:29:59.351Z,22.95
2022-07-31T18:31:35.404Z,22.89
2022-07-31T18:33:08.376Z,22.80
2022-07-31T18:34:40.685Z,22.72
2022-07-31T18:36:13.156Z,22.63
2022-07-31T18:37:45.633Z,22.55
2022-07-31T18:39:18.030Z,22.48
2022-07-31T18:40:50.538Z,22.42
2022-07-31T18:42:24.566Z,22.38
2022-07-31T18:43:57.779Z,22.31
2022-07-31T18:45:30.252Z,22.28
2022-07-31T18:47:02.631Z,22.21
2022-07-31T18:48:35.452Z,22.17
2022-07-31T18:50:58.152Z,22.11
2022-07-31T18:52:00.605Z,22.03
2022-07-31T18:53:33.838Z,21.95
2022-07-31T18:55:06.202Z,21.94
2022-07-31T18:56:38.598Z,21.86
2022-07-31T18:58:10.925Z,21.79
2022-07-31T18:59:43.512Z,21.71
2022-07-31T19:01:16.175Z,21.63
2022-07-31T19:02:48.609Z,21.58
2022-07-31T19:04:22.921Z,21.56
2022-07-31T19:05:55.103Z,21.56
2022-07-31T19:07:27.996Z,21.49
2022-07-31T19:09:00.452Z,21.42
2022-07-31T19:10:34.269Z,21.40
2022-07-31T19:12:08.492Z,21.36
2022-07-31T19:13:41.193Z,21.34
2022-07-31T19:15:13.858Z,21.31
2022-07-31T19:16:46.226Z,21.27
2022-07-31T19:18:27.885Z,21.22
2022-07-31T19:20:02.262Z,21.18
2022-07-31T19:21:43.868Z,21.13
2022-07-31T19:23:17.812Z,21.07
2022-07-31T19:24:51.153Z,21.04
2022-07-31T19:26:23.335Z,20.99
2022-07-31T19:27:55.714Z,20.96
2022-07-31T19:29:28.201Z,20.91
2022-07-31T19:31:00.941Z,20.88
2022-07-31T19:32:33.330Z,20.80
2022-07-31T19:34:05.552Z,20.75
2022-07-31T19:35:56.913Z,20.70
2022-07-31T19:37:30.371Z,20.64
2022-07-31T19:39:02.737Z,20.60
2022-07-31T20:22:24.274Z,20.21
2022-07-31T20:23:58.017Z,20.18
2022-07-31T20:25:30.089Z,20.17
2022-07-31T20:27:02.251Z,20.20
2022-07-31T20:28:34.681Z,20.29
2022-07-31T20:30:07.788Z,20.40
2022-07-31T20:31:39.906Z,20.40
2022-07-31T20:33:13.387Z,20.48
2022-07-31T20:34:45.707Z,20.56
2022-07-31T20:36:17.878Z,20.62
2022-07-31T20:37:50.176Z,20.69
2022-07-31T20:39:33.371Z,20.71
2022-07-31T20:41:06.912Z,20.78
2022-07-31T20:42:39.065Z,20.86
2022-07-31T20:44:11.183Z,20.96
2022-07-31T20:45:44.781Z,21.07
2022-07-31T20:47:18.101Z,21.13
2022-07-31T20:48:52.668Z,21.18
2022-07-31T20:50:25.502Z,21.24
2022-07-31T20:51:57.667Z,21.32
2022-07-31T20:53:31.090Z,21.37
2022-07-31T20:55:04.426Z,21.38
2022-07-31T20:56:36.397Z,21.45
2022-07-31T20:58:08.457Z,21.44
2022-07-31T20:59:40.537Z,21.45
2022-07-31T21:01:12.970Z,21.46
2022-07-31T21:02:46.905Z,21.49
2022-07-31T21:04:22.206Z,21.50
2022-07-31T21:05:54.333Z,21.51
2022-07-31T21:07:26.610Z,21.52
2022-07-31T21:08:58.734Z,21.52
2022-07-31T21:10:36.791Z,21.55
2022-07-31T21:12:10.078Z,21.54
2022-07-31T21:13:42.392Z,21.54